createdAt,value
2016-11-27T00:00:05.406Z,0
2016-11-27T00:01:18.423Z,0
2016-11-27T00:02:29.304Z,0
2016-11-27T00:03:43.047Z,0
2016-11-27T00:04:56.006Z,0
2016-11-27T00:06:09.661Z,0
2016-11-27T00:07:23.212Z,0
2016-11-27T00:08:36.788Z,0
2016-11-27T00:09:50.294Z,0
2016-11-27T00:11:03.364Z,0
2016-11-27T00:12:16.406Z,0
2016-11-27T00:13:29.976Z,0
2016-11-27T00:14:42.433Z,0
2016-11-27T00:15:55.474Z,0
2016-11-27T00:17:07.947Z,0
2016-11-27T00:18:19.849Z,0
2016-11-27T00:19:32.827Z,0
2016-11-27T00:20:45.841Z,0
2016-11-27T00:21:58.342Z,0
2016-11-27T00:23:11.352Z,0
2016-11-27T00:24:54.903Z,0
2016-11-27T00:26:07.999Z,0
2016-11-27T00:27:21.503Z,0
2016-11-27T00:28:34.444Z,0
2016-11-27T00:29:47.417Z,0
2016-11-27T00:31:00.429Z,0
2016-11-27T00:32:13.472Z,0
2016-11-27T00:33:26.484Z,0
2016-11-27T00:34:40.017Z,0
2016-11-27T00:35:52.504Z,0
2016-11-27T00:38:37.521Z,0
2016-11-27T00:40:21.725Z,0
2016-11-27T00:41:35.278Z,0
2016-11-27T00:42:47.718Z,0
2016-11-27T00:44:01.209Z,0
2016-11-27T00:45:14.238Z,0
2016-11-27T00:46:27.865Z,0
2016-11-27T00:47:40.885Z,0
2016-11-27T00:48:54.414Z,0
2016-11-27T00:50:07.887Z,0
2016-11-27T00:51:21.485Z,0
2016-11-27T00:52:33.975Z,0
2016-11-27T00:53:47.549Z,0
2016-11-27T00:55:00.039Z,0
2016-11-27T00:56:12.443Z,0
2016-11-27T00:57:25.982Z,0
2016-11-27T00:58:39.594Z,0
2016-11-27T01:00:23.710Z,0
2016-11-27T01:01:36.160Z,0
2016-11-27T01:02:49.180Z,0
2016-11-27T01:04:01.635Z,0
2016-11-27T01:05:14.639Z,0
2016-11-27T01:06:26.597Z,0
2016-11-27T01:07:40.145Z,0
2016-11-27T01:08:52.592Z,0
2016-11-27T01:10:06.172Z,0
2016-11-27T01:11:19.393Z,0
2016-11-27T01:12:32.441Z,0
2016-11-27T01:13:45.480Z,0
2016-11-27T01:14:57.965Z,0
2016-11-27T01:16:11.506Z,0
2016-11-27T01:17:24.533Z,0
2016-11-27T01:18:38.037Z,0
2016-11-27T01:19:51.037Z,0
2016-11-27T01:21:04.595Z,0
2016-11-27T01:22:17.615Z,0
2016-11-27T01:23:31.127Z,0
2016-11-27T01:24:44.714Z,0
2016-11-27T01:25:57.715Z,0
2016-11-27T01:27:10.797Z,0
2016-11-27T01:28:23.775Z,0
2016-11-27T01:29:37.322Z,0
2016-11-27T01:30:49.295Z,0
2016-11-27T01:32:01.821Z,0
2016-11-27T01:33:14.319Z,0
2016-11-27T01:34:26.279Z,0
2016-11-27T01:35:38.679Z,0
2016-11-27T01:36:52.167Z,0
2016-11-27T01:38:04.610Z,0
2016-11-27T01:39:17.609Z,0
2016-11-27T01:40:30.618Z,0
2016-11-27T01:41:44.166Z,0
2016-11-27T01:42:56.618Z,0
2016-11-27T01:44:09.565Z,0
2016-11-27T01:45:22.605Z,0
2016-11-27T01:46:36.134Z,0
2016-11-27T01:47:48.630Z,0
2016-11-27T01:49:02.160Z,0
2016-11-27T01:50:46.824Z,0
2016-11-27T01:51:59.845Z,0
2016-11-27T01:53:13.369Z,0
2016-11-27T01:54:25.919Z,0
2016-11-27T01:55:38.993Z,0
2016-11-27T01:56:52.044Z,0
2016-11-27T01:58:04.526Z,0
2016-11-27T01:59:18.068Z,0
2016-11-27T02:00:31.642Z,0
2016-11-27T02:01:43.612Z,0
2016-11-27T02:02:55.553Z,0
2016-11-27T02:04:08.558Z,0
2016-11-27T02:05:21.637Z,0
2016-11-27T02:06:34.615Z,0
2016-11-27T02:07:48.119Z,0
2016-11-27T02:09:00.582Z,0
2016-11-27T02:10:14.152Z,0
2016-11-27T02:11:26.086Z,0
2016-11-27T02:12:39.618Z,0
2016-11-27T02:13:52.023Z,0
2016-11-27T02:15:05.101Z,0
2016-11-27T02:16:17.521Z,0
2016-11-27T02:17:30.600Z,0
2016-11-27T02:18:42.554Z,0
2016-11-27T02:19:55.578Z,0
2016-11-27T02:21:08.019Z,0
2016-11-27T02:22:21.008Z,0
2016-11-27T02:23:34.565Z,0
2016-11-27T02:24:47.566Z,0
2016-11-27T02:26:00.578Z,0
2016-11-27T02:27:13.036Z,0
2016-11-27T02:28:25.034Z,0
2016-11-27T02:29:37.500Z,0
2016-11-27T02:30:50.473Z,0
2016-11-27T02:32:03.499Z,0
2016-11-27T02:33:16.969Z,0
2016-11-27T02:34:29.450Z,0
2016-11-27T02:35:43.071Z,0
2016-11-27T02:36:55.573Z,0
2016-11-27T02:38:08.059Z,0
2016-11-27T02:39:21.105Z,0
2016-11-27T02:40:34.244Z,0
2016-11-27T02:41:47.750Z,0
2016-11-27T02:43:00.772Z,0
2016-11-27T02:44:14.304Z,0
2016-11-27T02:45:27.322Z,0
2016-11-27T02:46:40.320Z,0
2016-11-27T02:47:53.313Z,0
2016-11-27T02:49:06.775Z,0
2016-11-27T02:50:19.793Z,0
2016-11-27T02:51:33.343Z,0
2016-11-27T02:52:46.933Z,0
2016-11-27T02:53:59.963Z,0
2016-11-27T02:55:12.910Z,0
2016-11-27T02:56:25.877Z,0
2016-11-27T02:57:39.402Z,0
2016-11-27T02:58:52.391Z,0
2016-11-27T03:00:04.271Z,0
2016-11-27T03:01:16.751Z,0
2016-11-27T03:02:30.302Z,0
2016-11-27T03:03:43.800Z,0
2016-11-27T03:04:56.298Z,0
2016-11-27T03:06:09.805Z,0
2016-11-27T03:07:23.331Z,0
2016-11-27T03:08:35.759Z,0
2016-11-27T03:09:47.856Z,0
2016-11-27T03:11:00.800Z,0
2016-11-27T03:12:14.358Z,0
2016-11-27T03:13:26.311Z,0
2016-11-27T03:14:38.811Z,0
2016-11-27T03:15:52.280Z,0
2016-11-27T03:17:05.292Z,0
2016-11-27T03:18:17.813Z,0
2016-11-27T03:19:30.771Z,0
2016-11-27T03:20:43.811Z,0
2016-11-27T03:21:56.335Z,0
2016-11-27T03:23:08.245Z,0
2016-11-27T03:24:20.710Z,0
2016-11-27T03:25:33.819Z,0
2016-11-27T03:26:46.339Z,0
2016-11-27T03:27:58.230Z,0
2016-11-27T03:29:11.219Z,0
2016-11-27T03:30:24.256Z,0
2016-11-27T03:31:37.819Z,0
2016-11-27T03:32:51.391Z,0
2016-11-27T03:34:04.413Z,0
2016-11-27T03:35:17.954Z,0
2016-11-27T03:36:31.521Z,0
2016-11-27T03:37:45.033Z,0
2016-11-27T03:38:58.583Z,0
2016-11-27T03:40:11.062Z,0
2016-11-27T03:41:24.090Z,0
2016-11-27T03:42:36.547Z,0
2016-11-27T03:43:48.994Z,0
2016-11-27T03:45:00.969Z,0
2016-11-27T03:46:13.993Z,0
2016-11-27T03:47:26.446Z,0
2016-11-27T03:48:38.443Z,0
2016-11-27T03:49:52.004Z,0
2016-11-27T03:51:04.990Z,0
2016-11-27T03:52:17.497Z,0
2016-11-27T03:53:30.549Z,0
2016-11-27T03:54:42.475Z,0
2016-11-27T03:55:54.983Z,0
2016-11-27T03:57:07.519Z,0
2016-11-27T03:58:21.094Z,0
2016-11-27T03:59:34.106Z,0
2016-11-27T04:00:46.055Z,0
2016-11-27T04:01:59.090Z,0
2016-11-27T04:03:10.976Z,0
2016-11-27T04:04:23.528Z,0
2016-11-27T04:05:35.522Z,0
2016-11-27T04:06:49.030Z,0
2016-11-27T04:08:02.555Z,0
2016-11-27T04:09:15.008Z,0
2016-11-27T04:10:27.991Z,0
2016-11-27T04:11:41.006Z,0
2016-11-27T04:12:53.479Z,0
2016-11-27T04:14:06.486Z,0
2016-11-27T04:15:20.061Z,0
2016-11-27T04:16:33.061Z,0
2016-11-27T04:17:45.586Z,0
2016-11-27T04:18:58.585Z,0
2016-11-27T04:20:12.075Z,0
2016-11-27T04:21:24.570Z,0
2016-11-27T04:22:37.101Z,0
2016-11-27T04:23:50.693Z,0
2016-11-27T04:25:02.104Z,0
2016-11-27T04:26:14.528Z,0
2016-11-27T04:27:26.980Z,0
2016-11-27T04:28:39.984Z,0
2016-11-27T04:29:52.451Z,0
2016-11-27T04:31:05.468Z,0
2016-11-27T04:32:17.465Z,0
2016-11-27T04:33:30.470Z,0
2016-11-27T04:34:42.944Z,0
2016-11-27T04:35:55.998Z,0
2016-11-27T04:37:07.432Z,0
2016-11-27T04:38:19.368Z,0
2016-11-27T04:39:31.864Z,0
2016-11-27T04:40:45.397Z,0
2016-11-27T04:41:58.383Z,0
2016-11-27T04:43:11.910Z,0
2016-11-27T04:44:24.341Z,0
2016-11-27T04:45:36.872Z,0
2016-11-27T04:46:49.863Z,0
2016-11-27T04:48:01.813Z,0
2016-11-27T04:49:14.767Z,0
2016-11-27T04:50:27.752Z,0
2016-11-27T04:51:40.691Z,0
2016-11-27T04:52:53.134Z,0
2016-11-27T04:54:06.685Z,0
2016-11-27T04:55:18.672Z,0
2016-11-27T04:56:32.304Z,0
2016-11-27T04:57:45.841Z,0
2016-11-27T04:58:58.317Z,0
2016-11-27T05:00:10.779Z,0
2016-11-27T05:01:23.258Z,0
2016-11-27T05:02:35.765Z,0
2016-11-27T05:03:47.729Z,0
2016-11-27T05:05:01.273Z,0
2016-11-27T05:06:13.760Z,0
2016-11-27T05:07:27.277Z,0
2016-11-27T05:08:39.719Z,0
2016-11-27T05:09:52.666Z,0
2016-11-27T05:11:06.249Z,0
2016-11-27T05:12:18.779Z,0
2016-11-27T05:13:31.230Z,0
2016-11-27T05:14:43.724Z,0
2016-11-27T05:15:56.692Z,0
2016-11-27T05:17:09.686Z,0
2016-11-27T05:18:21.112Z,0
2016-11-27T05:19:33.628Z,0
2016-11-27T05:20:46.098Z,0
2016-11-27T05:21:58.621Z,0
2016-11-27T05:23:11.116Z,0
2016-11-27T05:24:23.647Z,0
2016-11-27T05:25:37.182Z,0
2016-11-27T05:26:50.179Z,0
2016-11-27T05:28:01.587Z,0
2016-11-27T05:29:14.035Z,0
2016-11-27T05:30:26.497Z,0
2016-11-27T05:31:38.975Z,0
2016-11-27T05:32:50.964Z,0
2016-11-27T05:34:02.935Z,0
2016-11-27T05:35:15.974Z,0
2016-11-27T05:36:28.460Z,0
2016-11-27T05:37:40.962Z,0
2016-11-27T05:38:53.994Z,0
2016-11-27T05:40:05.966Z,0
2016-11-27T05:41:18.995Z,0
2016-11-27T05:43:02.048Z,0
2016-11-27T05:44:14.512Z,0
2016-11-27T05:45:26.990Z,0
2016-11-27T05:46:40.475Z,0
2016-11-27T05:47:52.956Z,0
2016-11-27T05:49:06.451Z,0
2016-11-27T05:50:20.015Z,0
2016-11-27T05:51:32.991Z,0
2016-11-27T05:52:45.434Z,0
2016-11-27T05:53:58.961Z,0
2016-11-27T05:55:11.939Z,0
2016-11-27T05:56:25.426Z,0
2016-11-27T05:57:38.432Z,0
2016-11-27T05:58:51.412Z,0
2016-11-27T06:00:03.382Z,0
2016-11-27T06:01:16.929Z,0
2016-11-27T06:02:28.856Z,0
2016-11-27T06:03:40.812Z,0
2016-11-27T06:04:53.794Z,0
2016-11-27T06:06:06.777Z,0
2016-11-27T06:07:19.234Z,0
2016-11-27T06:08:30.705Z,0
2016-11-27T06:09:44.215Z,0
2016-11-27T06:10:57.701Z,0
2016-11-27T06:12:10.677Z,0
2016-11-27T06:13:24.188Z,0
2016-11-27T06:14:36.635Z,0
2016-11-27T06:15:50.210Z,0
2016-11-27T06:17:02.669Z,0
2016-11-27T06:18:15.680Z,0
2016-11-27T06:19:28.663Z,0
2016-11-27T06:20:41.171Z,0
2016-11-27T06:22:24.755Z,0
2016-11-27T06:23:36.723Z,0
2016-11-27T06:24:49.154Z,0
2016-11-27T06:26:02.704Z,0
2016-11-27T06:27:15.728Z,0
2016-11-27T06:28:28.809Z,0
2016-11-27T06:29:41.811Z,0
2016-11-27T06:30:54.814Z,0
2016-11-27T06:32:08.334Z,0
2016-11-27T06:33:20.756Z,0
2016-11-27T06:34:33.789Z,0
2016-11-27T06:35:46.828Z,0
2016-11-27T06:36:58.284Z,0
2016-11-27T06:38:11.293Z,0
2016-11-27T06:39:23.703Z,0
2016-11-27T06:40:36.213Z,0
2016-11-27T06:41:47.630Z,0
2016-11-27T06:43:00.715Z,0
2016-11-27T06:44:13.768Z,0
2016-11-27T06:45:26.777Z,0
2016-11-27T06:46:39.796Z,0
2016-11-27T06:47:53.243Z,0
2016-11-27T06:49:06.281Z,0
2016-11-27T06:50:19.820Z,0
2016-11-27T06:51:32.851Z,0
2016-11-27T06:52:44.773Z,0
2016-11-27T06:53:57.219Z,0
2016-11-27T06:55:10.787Z,0
2016-11-27T06:56:23.729Z,0
2016-11-27T06:57:36.806Z,0
2016-11-27T06:58:50.759Z,0
2016-11-27T07:00:03.780Z,0
2016-11-27T07:01:16.811Z,0
2016-11-27T07:02:30.356Z,0
2016-11-27T07:03:42.882Z,0
2016-11-27T07:04:55.949Z,0
2016-11-27T07:06:09.486Z,0
2016-11-27T07:07:21.928Z,0
2016-11-27T07:08:34.869Z,0
2016-11-27T07:09:48.359Z,0
2016-11-27T07:11:00.843Z,0
2016-11-27T07:12:13.330Z,0
2016-11-27T07:13:26.374Z,0
2016-11-27T07:14:39.367Z,0
2016-11-27T07:15:52.296Z,0
2016-11-27T07:17:04.769Z,0
2016-11-27T07:18:17.192Z,0
2016-11-27T07:19:29.143Z,0
2016-11-27T07:20:42.174Z,0
2016-11-27T07:21:55.177Z,0
2016-11-27T07:23:08.761Z,0
2016-11-27T07:24:22.376Z,0
2016-11-27T07:25:35.356Z,0
2016-11-27T07:26:47.864Z,0
2016-11-27T07:28:01.362Z,0
2016-11-27T07:29:14.394Z,0
2016-11-27T07:30:25.857Z,0
2016-11-27T07:31:39.466Z,0
2016-11-27T07:32:53.068Z,0
2016-11-27T07:34:05.002Z,0
2016-11-27T07:35:18.593Z,0
2016-11-27T07:36:31.635Z,0
2016-11-27T07:37:43.069Z,0
2016-11-27T07:38:54.997Z,0
2016-11-27T07:40:08.023Z,0
2016-11-27T07:41:21.055Z,0
2016-11-27T07:42:34.053Z,4
2016-11-27T07:43:45.457Z,4
2016-11-27T07:44:58.961Z,0
2016-11-27T07:46:12.010Z,0
2016-11-27T07:47:24.546Z,0
2016-11-27T07:48:37.505Z,4
2016-11-27T07:49:51.069Z,4
2016-11-27T07:51:03.006Z,4
2016-11-27T07:52:16.594Z,4
2016-11-27T07:53:29.118Z,8
2016-11-27T07:55:13.791Z,8
2016-11-27T07:56:27.272Z,8
2016-11-27T07:57:39.756Z,12
2016-11-27T07:58:52.776Z,12
2016-11-27T08:00:04.655Z,16
2016-11-27T08:01:17.668Z,28
2016-11-27T08:02:29.608Z,32
2016-11-27T08:03:43.122Z,40
2016-11-27T08:04:56.650Z,40
2016-11-27T08:06:09.647Z,44
2016-11-27T08:07:22.705Z,44
2016-11-27T08:08:34.129Z,44
2016-11-27T08:09:47.636Z,52
2016-11-27T08:11:00.168Z,56
2016-11-27T08:12:12.648Z,60
2016-11-27T08:13:25.107Z,72
2016-11-27T08:14:38.071Z,84
2016-11-27T08:15:51.130Z,100
2016-11-27T08:17:04.232Z,116
2016-11-27T08:18:17.757Z,136
2016-11-27T08:19:31.256Z,164
2016-11-27T08:20:43.742Z,200
2016-11-27T08:21:55.647Z,224
2016-11-27T08:23:08.105Z,252
2016-11-27T08:24:20.062Z,284
2016-11-27T08:25:33.251Z,308
2016-11-27T08:26:46.797Z,352
2016-11-27T08:27:59.233Z,412
2016-11-27T08:29:12.760Z,432
2016-11-27T08:30:25.300Z,416
2016-11-27T08:31:37.701Z,380
2016-11-27T08:32:50.713Z,368
2016-11-27T08:34:04.198Z,372
2016-11-27T08:35:16.103Z,384
2016-11-27T08:36:29.648Z,396
2016-11-27T08:37:43.173Z,412
2016-11-27T08:38:56.680Z,440
2016-11-27T08:40:09.704Z,480
2016-11-27T08:41:22.192Z,520
2016-11-27T08:42:35.180Z,544
2016-11-27T08:43:48.644Z,548
2016-11-27T08:45:02.190Z,548
2016-11-27T08:46:14.678Z,548
2016-11-27T08:47:27.162Z,548
2016-11-27T08:48:40.190Z,580
2016-11-27T08:49:53.291Z,628
2016-11-27T08:51:06.360Z,648
2016-11-27T08:52:18.857Z,636
2016-11-27T08:53:31.838Z,664
2016-11-27T08:54:44.311Z,724
2016-11-27T08:55:56.804Z,740
2016-11-27T08:57:10.348Z,752
2016-11-27T08:58:22.864Z,756
2016-11-27T08:59:35.288Z,768
2016-11-27T09:00:47.762Z,788
2016-11-27T09:02:00.269Z,812
2016-11-27T09:03:12.219Z,816
2016-11-27T09:04:25.972Z,820
2016-11-27T09:05:37.949Z,828
2016-11-27T09:06:49.945Z,840
2016-11-27T09:08:02.437Z,840
2016-11-27T09:09:14.975Z,848
2016-11-27T09:10:28.032Z,884
2016-11-27T09:11:41.553Z,920
2016-11-27T09:12:54.555Z,980
2016-11-27T09:14:07.596Z,1068
2016-11-27T09:15:20.655Z,1148
2016-11-27T09:16:32.572Z,1224
2016-11-27T09:17:45.031Z,1316
2016-11-27T09:18:58.612Z,1388
2016-11-27T09:20:11.015Z,1480
2016-11-27T09:21:23.984Z,1560
2016-11-27T09:22:36.460Z,1656
2016-11-27T09:23:49.441Z,1792
2016-11-27T09:25:01.940Z,2160
2016-11-27T09:26:12.882Z,2760
2016-11-27T09:27:25.386Z,3504
2016-11-27T09:28:38.474Z,4652
2016-11-27T09:29:50.905Z,5288
2016-11-27T09:31:03.912Z,5536
2016-11-27T09:32:16.339Z,6320
2016-11-27T09:33:29.894Z,7000
2016-11-27T09:34:42.380Z,8072
2016-11-27T09:35:54.285Z,14096
2016-11-27T09:37:07.300Z,9384
2016-11-27T09:38:19.741Z,7100
2016-11-27T09:39:32.738Z,4056
2016-11-27T09:40:45.746Z,3116
2016-11-27T09:41:57.727Z,2968
2016-11-27T09:43:10.249Z,3024
2016-11-27T09:44:22.206Z,3420
2016-11-27T09:45:35.287Z,3508
2016-11-27T09:47:19.439Z,3348
2016-11-27T09:48:33.008Z,4296
2016-11-27T09:49:46.047Z,4960
2016-11-27T09:50:59.069Z,4592
2016-11-27T09:52:12.558Z,4760
2016-11-27T09:53:25.043Z,5260
2016-11-27T09:54:37.997Z,6264
2016-11-27T09:55:49.948Z,7356
2016-11-27T09:57:34.111Z,6432
2016-11-27T09:58:47.130Z,7124
2016-11-27T10:00:00.679Z,7148
2016-11-27T10:01:13.762Z,7836
2016-11-27T10:02:26.819Z,7828
2016-11-27T10:03:40.332Z,9556
2016-11-27T10:04:53.279Z,11088
2016-11-27T10:06:06.293Z,15416
2016-11-27T10:07:18.787Z,23392
2016-11-27T10:08:31.308Z,37312
2016-11-27T10:09:43.762Z,52896
2016-11-27T10:10:57.345Z,48160
2016-11-27T10:12:10.331Z,24448
2016-11-27T10:13:22.308Z,26688
2016-11-27T10:14:35.330Z,51840
2016-11-27T10:15:48.319Z,52736
2016-11-27T10:16:59.728Z,61408
2016-11-27T10:18:11.197Z,61760
2016-11-27T10:19:23.710Z,61408
2016-11-27T10:20:37.263Z,59840
2016-11-27T10:21:50.306Z,58496
2016-11-27T10:23:02.810Z,59136
2016-11-27T10:24:15.817Z,56608
2016-11-27T10:25:28.297Z,56832
2016-11-27T10:26:41.314Z,62080
2016-11-27T10:27:54.366Z,64480
2016-11-27T10:29:07.367Z,63072
2016-11-27T10:30:19.897Z,67008
2016-11-27T10:31:32.925Z,64064
2016-11-27T10:32:44.926Z,66144
2016-11-27T10:33:58.458Z,65152
2016-11-27T10:35:12.046Z,67904
2016-11-27T10:36:24.508Z,66432
2016-11-27T10:37:36.974Z,67072
2016-11-27T10:38:50.026Z,67680
2016-11-27T10:40:03.105Z,66272
2016-11-27T10:41:14.556Z,64928
2016-11-27T10:42:27.563Z,61568
2016-11-27T10:43:41.044Z,63168
2016-11-27T10:44:54.023Z,63520
2016-11-27T10:46:07.041Z,64736
2016-11-27T10:47:19.506Z,63168
2016-11-27T10:48:32.018Z,62400
2016-11-27T10:49:45.017Z,65344
2016-11-27T10:50:58.575Z,66752
2016-11-27T10:52:12.238Z,66592
2016-11-27T10:53:24.757Z,65024
2016-11-27T10:54:37.793Z,61696
2016-11-27T10:55:49.723Z,62016
2016-11-27T10:57:01.789Z,62976
2016-11-27T10:58:14.253Z,64224
2016-11-27T10:59:26.741Z,62368
2016-11-27T11:00:38.214Z,62272
2016-11-27T11:01:50.653Z,62432
2016-11-27T11:03:03.122Z,61312
2016-11-27T11:04:16.143Z,58336
2016-11-27T11:05:28.656Z,58816
2016-11-27T11:06:40.611Z,58304
2016-11-27T11:07:53.587Z,57216
2016-11-27T11:09:07.104Z,55008
2016-11-27T11:10:19.567Z,56672
2016-11-27T11:11:32.082Z,53632
2016-11-27T11:12:45.039Z,53760
2016-11-27T11:13:57.530Z,54368
2016-11-27T11:15:10.006Z,57280
2016-11-27T11:16:21.975Z,57536
2016-11-27T11:17:35.070Z,57792
2016-11-27T11:18:48.092Z,60128
2016-11-27T11:20:01.717Z,59808
2016-11-27T11:21:14.762Z,59008
2016-11-27T11:22:27.286Z,58784
2016-11-27T11:23:40.780Z,58432
2016-11-27T11:24:54.312Z,57984
2016-11-27T11:26:07.356Z,57280
2016-11-27T11:27:20.368Z,55200
2016-11-27T11:28:33.430Z,55040
2016-11-27T11:29:45.953Z,56128
2016-11-27T11:30:59.486Z,55488
2016-11-27T11:32:12.516Z,53792
2016-11-27T11:33:26.108Z,54336
2016-11-27T11:34:38.628Z,54944
2016-11-27T11:35:51.682Z,54528
2016-11-27T11:37:05.269Z,52224
2016-11-27T11:38:17.294Z,51168
2016-11-27T11:39:30.322Z,50560
2016-11-27T11:40:42.397Z,50144
2016-11-27T11:41:55.427Z,49184
2016-11-27T11:43:07.404Z,46592
2016-11-27T11:44:20.483Z,47008
2016-11-27T11:45:33.550Z,47904
2016-11-27T11:47:17.721Z,48256
2016-11-27T11:48:30.274Z,48736
2016-11-27T11:49:43.245Z,48960
2016-11-27T11:50:55.754Z,46944
2016-11-27T11:52:08.756Z,45536
2016-11-27T11:53:20.703Z,45120
2016-11-27T11:54:33.815Z,47712
2016-11-27T11:55:46.330Z,47744
2016-11-27T11:56:58.854Z,45504
2016-11-27T11:58:11.324Z,45568
2016-11-27T11:59:23.319Z,44704
2016-11-27T12:00:35.826Z,44096
2016-11-27T12:01:48.891Z,43648
2016-11-27T12:03:01.969Z,42624
2016-11-27T12:04:14.930Z,43776
2016-11-27T12:05:28.506Z,42656
2016-11-27T12:06:40.982Z,42688
2016-11-27T12:07:53.150Z,42464
2016-11-27T12:09:06.792Z,41536
2016-11-27T12:10:18.786Z,40864
2016-11-27T12:11:30.711Z,40224
2016-11-27T12:12:43.232Z,40480
2016-11-27T12:13:56.303Z,40256
2016-11-27T12:15:09.034Z,39104
2016-11-27T12:16:21.573Z,37792
2016-11-27T12:17:35.080Z,38752
2016-11-27T12:18:48.180Z,38752
2016-11-27T12:20:00.718Z,37152
2016-11-27T12:21:13.725Z,38080
2016-11-27T12:22:26.802Z,36256
2016-11-27T12:23:40.416Z,35392
2016-11-27T12:24:52.354Z,35424
2016-11-27T12:26:05.440Z,34432
2016-11-27T12:27:18.467Z,34336
2016-11-27T12:28:31.474Z,33536
2016-11-27T12:29:43.969Z,33120
2016-11-27T12:30:57.582Z,32320
2016-11-27T12:32:10.628Z,33024
2016-11-27T12:33:23.707Z,32896
2016-11-27T12:34:36.190Z,31648
2016-11-27T12:35:49.251Z,31040
2016-11-27T12:37:02.338Z,31072
2016-11-27T12:38:15.822Z,31456
2016-11-27T12:39:29.345Z,30560
2016-11-27T12:40:42.441Z,30432
2016-11-27T12:41:54.418Z,29632
2016-11-27T12:43:06.972Z,28736
2016-11-27T12:44:20.614Z,28576
2016-11-27T12:45:33.672Z,28000
2016-11-27T12:46:46.204Z,27296
2016-11-27T12:47:59.798Z,26880
2016-11-27T12:49:13.313Z,26304
2016-11-27T12:50:26.940Z,26336
2016-11-27T12:51:38.340Z,25952
2016-11-27T12:52:50.328Z,24992
2016-11-27T12:54:03.381Z,24000
2016-11-27T12:55:15.342Z,24032
2016-11-27T12:56:28.395Z,23840
2016-11-27T12:57:41.482Z,23264
2016-11-27T12:58:55.078Z,23104
2016-11-27T13:00:08.600Z,22592
2016-11-27T13:01:21.625Z,22240
2016-11-27T13:02:34.773Z,21856
2016-11-27T13:03:47.833Z,21600
2016-11-27T13:05:01.409Z,21440
2016-11-27T13:06:14.966Z,21120
2016-11-27T13:07:28.525Z,20256
2016-11-27T13:08:41.571Z,20064
2016-11-27T13:09:54.093Z,19648
2016-11-27T13:11:06.568Z,19936
2016-11-27T13:12:19.549Z,19584
2016-11-27T13:13:32.575Z,19008
2016-11-27T13:14:44.561Z,18944
2016-11-27T13:15:57.598Z,18752
2016-11-27T13:17:10.195Z,18368
2016-11-27T13:18:22.120Z,18112
2016-11-27T13:19:34.638Z,17760
2016-11-27T13:20:47.180Z,17440
2016-11-27T13:22:00.708Z,17216
2016-11-27T13:23:13.195Z,17120
2016-11-27T13:24:25.730Z,16960
2016-11-27T13:25:38.736Z,16736
2016-11-27T13:26:51.222Z,16928
2016-11-27T13:28:03.766Z,16800
2016-11-27T13:29:17.279Z,16480
2016-11-27T13:30:30.277Z,17248
2016-11-27T13:31:42.853Z,17056
2016-11-27T13:32:55.397Z,17280
2016-11-27T13:34:08.423Z,17088
2016-11-27T13:35:21.507Z,17472
2016-11-27T13:36:33.440Z,17408
2016-11-27T13:37:46.459Z,17472
2016-11-27T13:38:58.920Z,17248
2016-11-27T13:40:11.893Z,17728
2016-11-27T13:41:24.344Z,17696
2016-11-27T13:42:36.835Z,17056
2016-11-27T13:43:49.842Z,17376
2016-11-27T13:45:02.369Z,17408
2016-11-27T13:46:14.329Z,17472
2016-11-27T13:47:58.456Z,17952
2016-11-27T13:49:11.995Z,17696
2016-11-27T13:50:23.412Z,17504
2016-11-27T13:51:36.476Z,17568
2016-11-27T13:52:48.970Z,17856
2016-11-27T13:54:02.490Z,10752
2016-11-27T13:55:14.454Z,8856
2016-11-27T13:56:27.469Z,10056
2016-11-27T13:57:39.979Z,17280
2016-11-27T13:58:52.987Z,17792
2016-11-27T14:00:05.985Z,18112
2016-11-27T14:01:17.423Z,17760
2016-11-27T14:02:29.424Z,18528
2016-11-27T14:03:41.409Z,16992
2016-11-27T14:04:54.532Z,17664
2016-11-27T14:06:05.950Z,17728
2016-11-27T14:07:17.910Z,17248
2016-11-27T14:08:31.487Z,17280
2016-11-27T14:09:43.405Z,16896
2016-11-27T14:10:56.979Z,17152
2016-11-27T14:12:10.011Z,17120
2016-11-27T14:15:06.097Z,17280
2016-11-27T14:16:19.604Z,17664
2016-11-27T14:17:32.091Z,17408
2016-11-27T14:18:44.055Z,17024
2016-11-27T14:19:57.096Z,16608
2016-11-27T14:21:09.144Z,16544
2016-11-27T14:22:21.164Z,16352
2016-11-27T14:23:33.161Z,12076
2016-11-27T14:24:45.665Z,16224
2016-11-27T14:25:57.619Z,16032
2016-11-27T14:27:10.623Z,9784
2016-11-27T14:28:23.749Z,10220
2016-11-27T14:29:36.818Z,9032
2016-11-27T14:30:49.325Z,8452
2016-11-27T14:32:02.369Z,8184
2016-11-27T14:33:15.379Z,8228
2016-11-27T14:34:28.898Z,8104
2016-11-27T14:35:41.879Z,8284
2016-11-27T14:36:54.415Z,8448
2016-11-27T14:38:07.450Z,15744
2016-11-27T14:39:19.948Z,16256
2016-11-27T14:40:32.856Z,16800
2016-11-27T14:41:45.913Z,16800
2016-11-27T14:42:59.467Z,16160
2016-11-27T14:44:12.006Z,15104
2016-11-27T14:45:24.548Z,13700
2016-11-27T14:46:37.596Z,9016
2016-11-27T14:47:51.096Z,10132
2016-11-27T14:49:04.154Z,11636
2016-11-27T14:50:16.674Z,11392
2016-11-27T14:52:00.796Z,9360
2016-11-27T14:53:13.896Z,8944
2016-11-27T14:54:26.469Z,8940
2016-11-27T14:55:39.009Z,8668
2016-11-27T14:56:52.528Z,8536
2016-11-27T14:58:04.531Z,8548
2016-11-27T14:59:18.083Z,8504
2016-11-27T15:00:30.087Z,8216
2016-11-27T15:01:42.069Z,8172
2016-11-27T15:02:55.194Z,7928
2016-11-27T15:04:08.834Z,8012
2016-11-27T15:05:21.300Z,8148
2016-11-27T15:06:34.336Z,8328
2016-11-27T15:08:19.046Z,10792
2016-11-27T15:09:31.538Z,8872
2016-11-27T15:10:44.086Z,8304
2016-11-27T15:11:57.070Z,10844
2016-11-27T15:13:10.636Z,8768
2016-11-27T15:14:23.631Z,10828
2016-11-27T15:15:36.670Z,11176
2016-11-27T15:16:50.174Z,11808
2016-11-27T15:18:03.232Z,9156
2016-11-27T15:19:15.743Z,9056
2016-11-27T15:20:27.695Z,8704
2016-11-27T15:21:41.191Z,8600
2016-11-27T15:22:53.717Z,8116
2016-11-27T15:24:06.247Z,7700
2016-11-27T15:25:19.311Z,7256
2016-11-27T15:26:32.353Z,7268
2016-11-27T15:27:45.402Z,7172
2016-11-27T15:28:58.403Z,7056
2016-11-27T15:30:11.437Z,7232
2016-11-27T15:31:24.470Z,7356
2016-11-27T15:32:38.080Z,7420
2016-11-27T15:33:51.645Z,7576
2016-11-27T15:35:04.092Z,7492
2016-11-27T15:36:17.035Z,7736
2016-11-27T15:37:29.500Z,8040
2016-11-27T15:38:42.542Z,8344
2016-11-27T15:39:55.603Z,8428
2016-11-27T15:41:09.170Z,8756
2016-11-27T15:42:22.156Z,10300
2016-11-27T15:44:05.232Z,12408
2016-11-27T15:45:17.703Z,12488
2016-11-27T15:46:30.664Z,12304
2016-11-27T15:47:44.189Z,9112
2016-11-27T15:48:56.681Z,8788
2016-11-27T15:50:09.157Z,8448
2016-11-27T15:51:52.739Z,8408
2016-11-27T15:53:05.757Z,10388
2016-11-27T15:54:19.354Z,8544
2016-11-27T15:55:32.367Z,8960
2016-11-27T15:56:44.847Z,10480
2016-11-27T15:57:56.858Z,10540
2016-11-27T15:59:09.865Z,10836
2016-11-27T16:00:20.793Z,11024
2016-11-27T16:01:32.735Z,11052
2016-11-27T16:02:45.263Z,10952
2016-11-27T16:03:57.753Z,10884
2016-11-27T16:05:09.743Z,10972
2016-11-27T16:06:22.279Z,8616
2016-11-27T16:07:34.242Z,8548
2016-11-27T16:08:46.702Z,8408
2016-11-27T16:09:59.711Z,8340
2016-11-27T16:11:12.757Z,8512
2016-11-27T16:12:25.784Z,8996
2016-11-27T16:13:39.317Z,11292
2016-11-27T16:14:51.827Z,11360
2016-11-27T16:16:04.797Z,10856
2016-11-27T16:17:17.794Z,10100
2016-11-27T16:18:30.824Z,10456
2016-11-27T16:19:44.386Z,11072
2016-11-27T16:20:56.887Z,11480
2016-11-27T16:22:09.900Z,10900
2016-11-27T16:23:22.953Z,8920
2016-11-27T16:24:35.415Z,9164
2016-11-27T16:25:48.436Z,10624
2016-11-27T16:27:00.395Z,9460
2016-11-27T16:28:12.861Z,9436
2016-11-27T16:29:24.755Z,9060
2016-11-27T16:30:38.281Z,8876
2016-11-27T16:31:51.265Z,7396
2016-11-27T16:33:03.789Z,6244
2016-11-27T16:34:16.275Z,5928
2016-11-27T16:35:29.252Z,5696
2016-11-27T16:36:42.813Z,5548
2016-11-27T16:37:56.317Z,5436
2016-11-27T16:39:09.370Z,5420
2016-11-27T16:40:21.852Z,5416
2016-11-27T16:41:34.899Z,5456
2016-11-27T16:42:48.455Z,5456
2016-11-27T16:44:01.495Z,5412
2016-11-27T16:45:13.998Z,5352
2016-11-27T16:46:26.565Z,5324
2016-11-27T16:47:39.572Z,5308
2016-11-27T16:48:52.049Z,5276
2016-11-27T16:50:04.469Z,5276
2016-11-27T16:53:01.641Z,5164
2016-11-27T16:54:14.047Z,5088
2016-11-27T16:55:27.042Z,5000
2016-11-27T16:56:39.505Z,4936
2016-11-27T16:57:52.498Z,4888
2016-11-27T16:59:05.481Z,4860
2016-11-27T17:00:17.993Z,4836
2016-11-27T17:02:02.125Z,4832